sensor_id;sensor_type;location;lat;lon;timestamp;P1;durP1;ratioP1;P2;durP2;ratioP2
18875;SDS011;9570;50.854;13.778;2023-05-15T00:00:07;1.60;;;1.50;;
18875;SDS011;9570;50.854;13.778;2023-05-15T00:02:34;2.00;;;1.50;;
18875;SDS011;9570;50.854;13.778;2023-05-15T00:05:01;1.60;;;1.50;;
18875;SDS011;9570;50.854;13.778;2023-05-15T00:07:28;2.10;;;1.40;;
18875;SDS011;9570;50.854;13.778;2023-05-15T00:09:53;1.77;;;1.50;;
18875;SDS011;9570;50.854;13.778;2023-05-15T00:12:19;2.73;;;1.53;;
18875;SDS011;9570;50.854;13.778;2023-05-15T00:14:44;1.83;;;1.70;;
18875;SDS011;9570;50.854;13.778;2023-05-15T00:17:10;1.90;;;1.63;;
18875;SDS011;9570;50.854;13.778;2023-05-15T00:19:36;2.60;;;1.60;;
18875;SDS011;9570;50.854;13.778;2023-05-15T00:22:02;1.50;;;1.40;;
18875;SDS011;9570;50.854;13.778;2023-05-15T00:24:28;1.60;;;1.50;;
18875;SDS011;9570;50.854;13.778;2023-05-15T00:26:53;3.30;;;1.70;;
18875;SDS011;9570;50.854;13.778;2023-05-15T00:29:18;3.17;;;1.67;;
18875;SDS011;9570;50.854;13.778;2023-05-15T00:31:44;1.90;;;1.80;;
18875;SDS011;9570;50.854;13.778;2023-05-15T00:34:09;1.60;;;1.43;;
18875;SDS011;9570;50.854;13.778;2023-05-15T00:36:35;2.20;;;1.60;;
18875;SDS011;9570;50.854;13.778;2023-05-15T00:39:00;3.57;;;2.10;;
18875;SDS011;9570;50.854;13.778;2023-05-15T00:41:26;2.07;;;1.50;;
18875;SDS011;9570;50.854;13.778;2023-05-15T00:43:55;2.10;;;1.70;;
18875;SDS011;9570;50.854;13.778;2023-05-15T00:46:21;1.50;;;1.40;;
18875;SDS011;9570;50.854;13.778;2023-05-15T00:48:49;2.97;;;1.60;;
18875;SDS011;9570;50.854;13.778;2023-05-15T00:51:15;2.10;;;1.90;;
18875;SDS011;9570;50.854;13.778;2023-05-15T00:53:41;2.20;;;1.40;;
18875;SDS011;9570;50.854;13.778;2023-05-15T00:56:07;1.93;;;1.40;;
18875;SDS011;9570;50.854;13.778;2023-05-15T00:58:34;2.07;;;1.60;;
18875;SDS011;9570;50.854;13.778;2023-05-15T01:01:01;2.20;;;1.80;;
18875;SDS011;9570;50.854;13.778;2023-05-15T01:03:27;2.23;;;1.60;;
18875;SDS011;9570;50.854;13.778;2023-05-15T01:08:25;1.77;;;1.50;;
18875;SDS011;9570;50.854;13.778;2023-05-15T01:10:53;1.87;;;1.60;;
18875;SDS011;9570;50.854;13.778;2023-05-15T01:13:19;2.33;;;1.70;;
18875;SDS011;9570;50.854;13.778;2023-05-15T01:15:47;2.30;;;1.67;;
18875;SDS011;9570;50.854;13.778;2023-05-15T01:18:13;1.63;;;1.50;;
18875;SDS011;9570;50.854;13.778;2023-05-15T01:26:23;2.20;;;1.83;;
18875;SDS011;9570;50.854;13.778;2023-05-15T01:29:23;3.27;;;1.50;;
18875;SDS011;9570;50.854;13.778;2023-05-15T01:31:53;1.60;;;1.50;;
18875;SDS011;9570;50.854;13.778;2023-05-15T01:34:28;1.67;;;1.57;;
18875;SDS011;9570;50.854;13.778;2023-05-15T01:37:02;3.00;;;1.70;;
18875;SDS011;9570;50.854;13.778;2023-05-15T01:39:28;7.13;;;2.00;;
18875;SDS011;9570;50.854;13.778;2023-05-15T01:41:59;4.97;;;1.60;;
18875;SDS011;9570;50.854;13.778;2023-05-15T01:44:31;2.27;;;1.60;;
18875;SDS011;9570;50.854;13.778;2023-05-15T01:47:00;2.87;;;1.50;;
18875;SDS011;9570;50.854;13.778;2023-05-15T01:49:31;3.33;;;1.70;;
18875;SDS011;9570;50.854;13.778;2023-05-15T01:52:11;1.83;;;1.50;;
18875;SDS011;9570;50.854;13.778;2023-05-15T01:54:50;1.63;;;1.53;;
18875;SDS011;9570;50.854;13.778;2023-05-15T01:57:17;1.70;;;1.60;;
18875;SDS011;9570;50.854;13.778;2023-05-15T01:59:44;2.07;;;1.70;;
18875;SDS011;9570;50.854;13.778;2023-05-15T02:02:10;1.77;;;1.50;;
18875;SDS011;9570;50.854;13.778;2023-05-15T02:04:37;1.97;;;1.70;;
18875;SDS011;9570;50.854;13.778;2023-05-15T02:07:03;2.03;;;1.63;;
18875;SDS011;9570;50.854;13.778;2023-05-15T02:09:30;1.93;;;1.60;;
18875;SDS011;9570;50.854;13.778;2023-05-15T02:11:57;1.77;;;1.67;;
18875;SDS011;9570;50.854;13.778;2023-05-15T02:14:25;1.93;;;1.70;;
18875;SDS011;9570;50.854;13.778;2023-05-15T02:16:53;1.77;;;1.67;;
18875;SDS011;9570;50.854;13.778;2023-05-15T02:19:18;2.90;;;1.50;;
18875;SDS011;9570;50.854;13.778;2023-05-15T02:21:44;2.00;;;1.80;;
18875;SDS011;9570;50.854;13.778;2023-05-15T02:24:09;1.60;;;1.50;;
18875;SDS011;9570;50.854;13.778;2023-05-15T02:26:36;2.33;;;1.87;;
18875;SDS011;9570;50.854;13.778;2023-05-15T02:29:26;1.87;;;1.70;;
18875;SDS011;9570;50.854;13.778;2023-05-15T02:32:04;1.70;;;1.60;;
18875;SDS011;9570;50.854;13.778;2023-05-15T02:34:38;2.43;;;1.70;;
18875;SDS011;9570;50.854;13.778;2023-05-15T02:37:27;1.90;;;1.70;;
18875;SDS011;9570;50.854;13.778;2023-05-15T02:39:56;2.07;;;1.87;;
18875;SDS011;9570;50.854;13.778;2023-05-15T02:42:23;2.03;;;1.80;;
18875;SDS011;9570;50.854;13.778;2023-05-15T02:44:50;3.00;;;1.90;;
18875;SDS011;9570;50.854;13.778;2023-05-15T02:47:18;1.73;;;1.60;;
18875;SDS011;9570;50.854;13.778;2023-05-15T02:49:45;2.20;;;2.00;;
18875;SDS011;9570;50.854;13.778;2023-05-15T02:52:11;2.83;;;2.00;;
18875;SDS011;9570;50.854;13.778;2023-05-15T02:54:36;3.27;;;2.07;;
18875;SDS011;9570;50.854;13.778;2023-05-15T02:57:02;2.43;;;2.23;;
18875;SDS011;9570;50.854;13.778;2023-05-15T02:59:28;2.27;;;2.07;;
18875;SDS011;9570;50.854;13.778;2023-05-15T03:01:53;2.07;;;1.83;;
18875;SDS011;9570;50.854;13.778;2023-05-15T03:04:19;2.40;;;2.07;;
18875;SDS011;9570;50.854;13.778;2023-05-15T03:06:44;2.40;;;2.00;;
18875;SDS011;9570;50.854;13.778;2023-05-15T03:09:10;2.90;;;1.90;;
18875;SDS011;9570;50.854;13.778;2023-05-15T03:11:35;2.80;;;2.10;;
18875;SDS011;9570;50.854;13.778;2023-05-15T03:14:01;3.10;;;2.20;;
18875;SDS011;9570;50.854;13.778;2023-05-15T03:16:26;3.00;;;2.10;;
18875;SDS011;9570;50.854;13.778;2023-05-15T03:18:52;2.30;;;1.87;;
18875;SDS011;9570;50.854;13.778;2023-05-15T03:21:18;1.97;;;1.83;;
18875;SDS011;9570;50.854;13.778;2023-05-15T03:23:43;3.17;;;1.97;;
18875;SDS011;9570;50.854;13.778;2023-05-15T03:26:09;2.20;;;1.97;;
18875;SDS011;9570;50.854;13.778;2023-05-15T03:28:35;2.33;;;2.10;;
18875;SDS011;9570;50.854;13.778;2023-05-15T03:31:01;3.17;;;2.10;;
18875;SDS011;9570;50.854;13.778;2023-05-15T03:33:28;2.50;;;2.10;;
18875;SDS011;9570;50.854;13.778;2023-05-15T03:35:54;2.90;;;2.20;;
18875;SDS011;9570;50.854;13.778;2023-05-15T03:38:20;4.20;;;2.00;;
18875;SDS011;9570;50.854;13.778;2023-05-15T03:40:45;3.97;;;1.97;;
18875;SDS011;9570;50.854;13.778;2023-05-15T03:43:11;2.53;;;2.20;;
18875;SDS011;9570;50.854;13.778;2023-05-15T03:45:37;2.10;;;1.90;;
18875;SDS011;9570;50.854;13.778;2023-05-15T03:48:03;2.20;;;2.00;;
18875;SDS011;9570;50.854;13.778;2023-05-15T03:50:29;8.23;;;2.10;;
18875;SDS011;9570;50.854;13.778;2023-05-15T03:52:54;2.33;;;2.00;;
18875;SDS011;9570;50.854;13.778;2023-05-15T03:55:20;3.50;;;2.20;;
18875;SDS011;9570;50.854;13.778;2023-05-15T03:57:45;3.40;;;1.93;;
18875;SDS011;9570;50.854;13.778;2023-05-15T04:00:11;2.30;;;2.10;;
18875;SDS011;9570;50.854;13.778;2023-05-15T04:02:37;2.10;;;1.90;;
18875;SDS011;9570;50.854;13.778;2023-05-15T04:05:03;2.03;;;1.77;;
18875;SDS011;9570;50.854;13.778;2023-05-15T04:07:29;2.17;;;1.97;;
18875;SDS011;9570;50.854;13.778;2023-05-15T04:09:56;2.53;;;1.87;;
18875;SDS011;9570;50.854;13.778;2023-05-15T04:12:25;3.17;;;2.00;;
18875;SDS011;9570;50.854;13.778;2023-05-15T04:14:55;1.87;;;1.77;;
18875;SDS011;9570;50.854;13.778;2023-05-15T04:17:23;3.80;;;2.07;;
18875;SDS011;9570;50.854;13.778;2023-05-15T04:19:48;4.30;;;1.97;;
18875;SDS011;9570;50.854;13.778;2023-05-15T04:22:14;3.00;;;2.00;;
18875;SDS011;9570;50.854;13.778;2023-05-15T04:24:39;3.10;;;2.03;;
18875;SDS011;9570;50.854;13.778;2023-05-15T04:27:05;2.27;;;2.07;;
18875;SDS011;9570;50.854;13.778;2023-05-15T04:29:30;4.40;;;1.83;;
18875;SDS011;9570;50.854;13.778;2023-05-15T04:31:56;3.63;;;2.10;;
18875;SDS011;9570;50.854;13.778;2023-05-15T04:34:21;2.30;;;2.03;;
18875;SDS011;9570;50.854;13.778;2023-05-15T04:36:47;2.20;;;2.00;;
18875;SDS011;9570;50.854;13.778;2023-05-15T04:39:13;2.17;;;1.97;;
18875;SDS011;9570;50.854;13.778;2023-05-15T04:41:39;2.43;;;2.13;;
18875;SDS011;9570;50.854;13.778;2023-05-15T04:44:04;2.97;;;2.00;;
18875;SDS011;9570;50.854;13.778;2023-05-15T04:46:30;3.83;;;2.00;;
18875;SDS011;9570;50.854;13.778;2023-05-15T04:48:58;2.10;;;1.90;;
18875;SDS011;9570;50.854;13.778;2023-05-15T04:51:24;3.00;;;1.90;;
18875;SDS011;9570;50.854;13.778;2023-05-15T04:53:49;2.43;;;1.87;;
18875;SDS011;9570;50.854;13.778;2023-05-15T04:56:15;3.27;;;2.00;;
18875;SDS011;9570;50.854;13.778;2023-05-15T04:58:40;2.87;;;1.93;;
18875;SDS011;9570;50.854;13.778;2023-05-15T05:01:06;3.10;;;2.13;;
18875;SDS011;9570;50.854;13.778;2023-05-15T05:03:31;2.60;;;2.30;;
18875;SDS011;9570;50.854;13.778;2023-05-15T05:05:57;3.93;;;2.33;;
18875;SDS011;9570;50.854;13.778;2023-05-15T05:08:22;3.20;;;2.50;;
18875;SDS011;9570;50.854;13.778;2023-05-15T05:10:48;3.10;;;2.50;;
18875;SDS011;9570;50.854;13.778;2023-05-15T05:13:18;3.00;;;2.07;;
18875;SDS011;9570;50.854;13.778;2023-05-15T05:15:44;2.27;;;2.00;;
18875;SDS011;9570;50.854;13.778;2023-05-15T05:18:10;3.00;;;2.47;;
18875;SDS011;9570;50.854;13.778;2023-05-15T05:20:35;2.30;;;2.10;;
18875;SDS011;9570;50.854;13.778;2023-05-15T05:23:01;4.33;;;2.30;;
18875;SDS011;9570;50.854;13.778;2023-05-15T05:25:26;3.90;;;2.27;;
18875;SDS011;9570;50.854;13.778;2023-05-15T05:27:52;3.00;;;2.50;;
18875;SDS011;9570;50.854;13.778;2023-05-15T05:30:17;2.60;;;2.10;;
18875;SDS011;9570;50.854;13.778;2023-05-15T05:32:43;3.20;;;2.50;;
18875;SDS011;9570;50.854;13.778;2023-05-15T05:35:08;2.40;;;2.10;;
18875;SDS011;9570;50.854;13.778;2023-05-15T05:37:34;2.97;;;2.20;;
18875;SDS011;9570;50.854;13.778;2023-05-15T05:39:59;6.07;;;2.20;;
18875;SDS011;9570;50.854;13.778;2023-05-15T05:42:25;2.53;;;2.17;;
18875;SDS011;9570;50.854;13.778;2023-05-15T05:44:50;4.20;;;2.40;;
18875;SDS011;9570;50.854;13.778;2023-05-15T05:47:16;2.53;;;2.33;;
18875;SDS011;9570;50.854;13.778;2023-05-15T05:49:41;2.83;;;2.50;;
18875;SDS011;9570;50.854;13.778;2023-05-15T05:52:07;2.47;;;2.27;;
18875;SDS011;9570;50.854;13.778;2023-05-15T05:54:33;3.83;;;2.60;;
18875;SDS011;9570;50.854;13.778;2023-05-15T05:56:59;2.77;;;2.50;;
18875;SDS011;9570;50.854;13.778;2023-05-15T05:59:24;2.70;;;2.40;;
18875;SDS011;9570;50.854;13.778;2023-05-15T06:01:50;3.40;;;2.60;;
18875;SDS011;9570;50.854;13.778;2023-05-15T06:04:15;4.37;;;2.90;;
18875;SDS011;9570;50.854;13.778;2023-05-15T06:06:42;4.13;;;2.83;;
18875;SDS011;9570;50.854;13.778;2023-05-15T06:09:07;3.33;;;2.80;;
18875;SDS011;9570;50.854;13.778;2023-05-15T06:11:33;2.87;;;2.60;;
18875;SDS011;9570;50.854;13.778;2023-05-15T06:13:59;3.70;;;2.73;;
18875;SDS011;9570;50.854;13.778;2023-05-15T06:16:24;3.70;;;3.33;;
18875;SDS011;9570;50.854;13.778;2023-05-15T06:18:50;4.10;;;2.87;;
18875;SDS011;9570;50.854;13.778;2023-05-15T06:21:16;4.90;;;3.30;;
18875;SDS011;9570;50.854;13.778;2023-05-15T06:23:41;5.67;;;3.60;;
18875;SDS011;9570;50.854;13.778;2023-05-15T06:26:07;4.13;;;3.17;;
18875;SDS011;9570;50.854;13.778;2023-05-15T06:28:32;3.53;;;3.23;;
18875;SDS011;9570;50.854;13.778;2023-05-15T06:30:57;6.40;;;3.77;;
18875;SDS011;9570;50.854;13.778;2023-05-15T06:33:23;4.03;;;3.63;;
18875;SDS011;9570;50.854;13.778;2023-05-15T06:35:48;5.07;;;4.13;;
18875;SDS011;9570;50.854;13.778;2023-05-15T06:38:14;4.90;;;4.40;;
18875;SDS011;9570;50.854;13.778;2023-05-15T06:40:40;4.83;;;4.03;;
18875;SDS011;9570;50.854;13.778;2023-05-15T06:43:05;5.20;;;4.70;;
18875;SDS011;9570;50.854;13.778;2023-05-15T06:45:31;5.10;;;4.23;;
18875;SDS011;9570;50.854;13.778;2023-05-15T06:47:56;5.40;;;4.90;;
18875;SDS011;9570;50.854;13.778;2023-05-15T06:50:21;4.63;;;4.23;;
18875;SDS011;9570;50.854;13.778;2023-05-15T06:52:47;6.47;;;4.97;;
18875;SDS011;9570;50.854;13.778;2023-05-15T06:55:12;6.67;;;5.13;;
18875;SDS011;9570;50.854;13.778;2023-05-15T06:57:38;5.90;;;5.17;;
18875;SDS011;9570;50.854;13.778;2023-05-15T07:00:03;5.13;;;4.63;;
18875;SDS011;9570;50.854;13.778;2023-05-15T07:02:29;4.80;;;4.40;;
18875;SDS011;9570;50.854;13.778;2023-05-15T07:04:55;6.73;;;4.40;;
18875;SDS011;9570;50.854;13.778;2023-05-15T07:07:20;5.13;;;4.07;;
18875;SDS011;9570;50.854;13.778;2023-05-15T07:09:46;4.47;;;4.07;;
18875;SDS011;9570;50.854;13.778;2023-05-15T07:12:14;4.27;;;3.83;;
18875;SDS011;9570;50.854;13.778;2023-05-15T07:14:39;5.10;;;4.17;;
18875;SDS011;9570;50.854;13.778;2023-05-15T07:17:05;4.20;;;3.80;;
18875;SDS011;9570;50.854;13.778;2023-05-15T07:19:30;4.23;;;3.70;;
18875;SDS011;9570;50.854;13.778;2023-05-15T07:21:56;4.20;;;3.70;;
18875;SDS011;9570;50.854;13.778;2023-05-15T07:24:21;4.43;;;4.03;;
18875;SDS011;9570;50.854;13.778;2023-05-15T07:26:46;5.30;;;4.20;;
18875;SDS011;9570;50.854;13.778;2023-05-15T07:29:12;5.13;;;4.30;;
18875;SDS011;9570;50.854;13.778;2023-05-15T07:31:37;4.77;;;4.37;;
18875;SDS011;9570;50.854;13.778;2023-05-15T07:34:04;4.97;;;4.40;;
18875;SDS011;9570;50.854;13.778;2023-05-15T07:36:29;5.57;;;4.63;;
18875;SDS011;9570;50.854;13.778;2023-05-15T07:38:55;5.83;;;4.33;;
18875;SDS011;9570;50.854;13.778;2023-05-15T07:41:21;7.33;;;3.70;;
18875;SDS011;9570;50.854;13.778;2023-05-15T07:43:46;5.63;;;4.27;;
18875;SDS011;9570;50.854;13.778;2023-05-15T07:46:11;4.37;;;3.97;;
18875;SDS011;9570;50.854;13.778;2023-05-15T07:48:37;5.77;;;4.23;;
18875;SDS011;9570;50.854;13.778;2023-05-15T07:51:02;4.57;;;4.13;;
18875;SDS011;9570;50.854;13.778;2023-05-15T07:53:28;5.20;;;4.50;;
18875;SDS011;9570;50.854;13.778;2023-05-15T07:55:53;6.93;;;4.47;;
18875;SDS011;9570;50.854;13.778;2023-05-15T07:58:19;4.73;;;4.30;;
18875;SDS011;9570;50.854;13.778;2023-05-15T08:00:44;6.53;;;4.07;;
18875;SDS011;9570;50.854;13.778;2023-05-15T08:03:10;5.37;;;4.47;;
18875;SDS011;9570;50.854;13.778;2023-05-15T08:05:35;5.93;;;4.30;;
18875;SDS011;9570;50.854;13.778;2023-05-15T08:08:01;5.63;;;4.27;;
18875;SDS011;9570;50.854;13.778;2023-05-15T08:10:27;4.57;;;4.17;;
18875;SDS011;9570;50.854;13.778;2023-05-15T08:12:52;5.47;;;4.23;;
18875;SDS011;9570;50.854;13.778;2023-05-15T08:15:18;5.60;;;4.77;;
18875;SDS011;9570;50.854;13.778;2023-05-15T08:17:43;5.97;;;4.47;;
18875;SDS011;9570;50.854;13.778;2023-05-15T08:20:09;7.50;;;4.90;;
18875;SDS011;9570;50.854;13.778;2023-05-15T08:22:35;7.03;;;4.73;;
18875;SDS011;9570;50.854;13.778;2023-05-15T08:25:01;5.90;;;5.30;;
18875;SDS011;9570;50.854;13.778;2023-05-15T08:27:30;7.87;;;4.90;;
18875;SDS011;9570;50.854;13.778;2023-05-15T08:29:56;5.03;;;4.53;;
18875;SDS011;9570;50.854;13.778;2023-05-15T08:32:22;5.47;;;4.90;;
18875;SDS011;9570;50.854;13.778;2023-05-15T08:34:47;7.27;;;5.10;;
18875;SDS011;9570;50.854;13.778;2023-05-15T08:37:12;5.83;;;4.70;;
18875;SDS011;9570;50.854;13.778;2023-05-15T08:39:38;5.97;;;4.87;;
18875;SDS011;9570;50.854;13.778;2023-05-15T08:44:43;5.93;;;4.40;;
18875;SDS011;9570;50.854;13.778;2023-05-15T08:47:09;6.33;;;4.73;;
18875;SDS011;9570;50.854;13.778;2023-05-15T08:50:09;4.97;;;4.47;;
18875;SDS011;9570;50.854;13.778;2023-05-15T08:52:34;5.30;;;4.80;;
18875;SDS011;9570;50.854;13.778;2023-05-15T08:55:00;5.60;;;5.00;;
18875;SDS011;9570;50.854;13.778;2023-05-15T08:57:26;5.70;;;5.00;;
18875;SDS011;9570;50.854;13.778;2023-05-15T08:59:53;5.37;;;4.87;;
18875;SDS011;9570;50.854;13.778;2023-05-15T09:02:19;5.57;;;5.07;;
18875;SDS011;9570;50.854;13.778;2023-05-15T09:04:45;7.13;;;5.63;;
18875;SDS011;9570;50.854;13.778;2023-05-15T09:07:12;6.90;;;5.07;;
18875;SDS011;9570;50.854;13.778;2023-05-15T09:09:39;6.53;;;4.90;;
18875;SDS011;9570;50.854;13.778;2023-05-15T09:12:08;5.67;;;4.57;;
18875;SDS011;9570;50.854;13.778;2023-05-15T09:14:35;5.13;;;4.63;;
18875;SDS011;9570;50.854;13.778;2023-05-15T09:17:01;5.30;;;4.23;;
18875;SDS011;9570;50.854;13.778;2023-05-15T09:19:26;4.87;;;4.40;;
18875;SDS011;9570;50.854;13.778;2023-05-15T09:21:52;5.10;;;4.30;;
18875;SDS011;9570;50.854;13.778;2023-05-15T09:24:18;5.23;;;4.73;;
18875;SDS011;9570;50.854;13.778;2023-05-15T09:27:01;9.93;;;5.50;;
18875;SDS011;9570;50.854;13.778;2023-05-15T09:29:28;6.50;;;5.77;;
18875;SDS011;9570;50.854;13.778;2023-05-15T09:31:55;8.30;;;5.80;;
18875;SDS011;9570;50.854;13.778;2023-05-15T09:34:27;6.27;;;5.20;;
18875;SDS011;9570;50.854;13.778;2023-05-15T09:36:54;5.87;;;5.37;;
18875;SDS011;9570;50.854;13.778;2023-05-15T09:39:22;5.50;;;5.00;;
18875;SDS011;9570;50.854;13.778;2023-05-15T09:41:48;6.00;;;5.40;;
18875;SDS011;9570;50.854;13.778;2023-05-15T09:44:23;9.67;;;5.97;;
18875;SDS011;9570;50.854;13.778;2023-05-15T09:46:50;6.43;;;5.63;;
18875;SDS011;9570;50.854;13.778;2023-05-15T09:49:16;6.07;;;5.17;;
18875;SDS011;9570;50.854;13.778;2023-05-15T09:51:43;5.17;;;4.63;;
18875;SDS011;9570;50.854;13.778;2023-05-15T09:54:13;5.40;;;4.90;;
18875;SDS011;9570;50.854;13.778;2023-05-15T09:56:41;6.43;;;4.90;;
18875;SDS011;9570;50.854;13.778;2023-05-15T09:59:08;5.37;;;4.87;;
18875;SDS011;9570;50.854;13.778;2023-05-15T10:01:37;5.60;;;5.00;;
18875;SDS011;9570;50.854;13.778;2023-05-15T10:04:03;7.80;;;5.03;;
18875;SDS011;9570;50.854;13.778;2023-05-15T10:06:33;5.73;;;5.23;;
18875;SDS011;9570;50.854;13.778;2023-05-15T10:09:06;5.13;;;4.70;;
18875;SDS011;9570;50.854;13.778;2023-05-15T10:11:33;5.13;;;4.53;;
18875;SDS011;9570;50.854;13.778;2023-05-15T10:14:00;5.33;;;4.80;;
18875;SDS011;9570;50.854;13.778;2023-05-15T10:16:27;6.03;;;4.60;;
18875;SDS011;9570;50.854;13.778;2023-05-15T10:18:54;6.07;;;4.60;;
18875;SDS011;9570;50.854;13.778;2023-05-15T10:21:22;6.07;;;5.13;;
18875;SDS011;9570;50.854;13.778;2023-05-15T10:23:49;5.60;;;5.00;;
18875;SDS011;9570;50.854;13.778;2023-05-15T10:26:15;12.10;;;5.20;;
18875;SDS011;9570;50.854;13.778;2023-05-15T10:28:53;5.23;;;4.73;;
18875;SDS011;9570;50.854;13.778;2023-05-15T10:31:21;9.50;;;5.07;;
18875;SDS011;9570;50.854;13.778;2023-05-15T10:33:49;6.10;;;5.23;;
18875;SDS011;9570;50.854;13.778;2023-05-15T10:36:15;5.07;;;4.57;;
18875;SDS011;9570;50.854;13.778;2023-05-15T10:38:42;6.30;;;4.83;;
18875;SDS011;9570;50.854;13.778;2023-05-15T10:41:08;5.97;;;5.10;;
18875;SDS011;9570;50.854;13.778;2023-05-15T10:43:35;5.97;;;5.47;;
18875;SDS011;9570;50.854;13.778;2023-05-15T10:46:01;6.40;;;5.30;;
18875;SDS011;9570;50.854;13.778;2023-05-15T10:48:28;9.50;;;5.47;;
18875;SDS011;9570;50.854;13.778;2023-05-15T10:50:54;6.27;;;4.90;;
18875;SDS011;9570;50.854;13.778;2023-05-15T10:53:23;5.60;;;4.17;;
18875;SDS011;9570;50.854;13.778;2023-05-15T10:55:48;5.30;;;4.40;;
18875;SDS011;9570;50.854;13.778;2023-05-15T10:58:14;6.03;;;4.33;;
18875;SDS011;9570;50.854;13.778;2023-05-15T11:00:40;5.17;;;4.60;;
18875;SDS011;9570;50.854;13.778;2023-05-15T11:03:07;7.77;;;4.80;;
18875;SDS011;9570;50.854;13.778;2023-05-15T11:08:38;5.80;;;4.67;;
18875;SDS011;9570;50.854;13.778;2023-05-15T11:11:04;7.20;;;4.57;;
18875;SDS011;9570;50.854;13.778;2023-05-15T11:19:21;6.63;;;4.10;;
18875;SDS011;9570;50.854;13.778;2023-05-15T11:21:46;5.57;;;5.07;;
18875;SDS011;9570;50.854;13.778;2023-05-15T11:24:17;5.97;;;5.00;;
18875;SDS011;9570;50.854;13.778;2023-05-15T11:26:43;7.20;;;5.33;;
18875;SDS011;9570;50.854;13.778;2023-05-15T11:29:16;7.73;;;5.83;;
18875;SDS011;9570;50.854;13.778;2023-05-15T11:31:42;6.67;;;5.70;;
18875;SDS011;9570;50.854;13.778;2023-05-15T11:34:08;5.57;;;5.07;;
18875;SDS011;9570;50.854;13.778;2023-05-15T11:36:33;8.27;;;5.30;;
18875;SDS011;9570;50.854;13.778;2023-05-15T11:39:08;5.10;;;4.60;;
18875;SDS011;9570;50.854;13.778;2023-05-15T11:41:35;5.10;;;4.60;;
18875;SDS011;9570;50.854;13.778;2023-05-15T11:44:01;5.40;;;4.90;;
18875;SDS011;9570;50.854;13.778;2023-05-15T11:46:27;5.60;;;5.10;;
18875;SDS011;9570;50.854;13.778;2023-05-15T11:48:53;8.70;;;5.20;;
18875;SDS011;9570;50.854;13.778;2023-05-15T11:51:22;7.57;;;5.30;;
18875;SDS011;9570;50.854;13.778;2023-05-15T11:53:50;9.57;;;5.63;;
18875;SDS011;9570;50.854;13.778;2023-05-15T11:56:17;6.20;;;5.70;;
18875;SDS011;9570;50.854;13.778;2023-05-15T11:58:43;8.17;;;6.30;;
18875;SDS011;9570;50.854;13.778;2023-05-15T12:01:11;11.50;;;6.50;;
18875;SDS011;9570;50.854;13.778;2023-05-15T12:03:37;10.07;;;6.80;;
18875;SDS011;9570;50.854;13.778;2023-05-15T12:06:02;8.03;;;6.10;;
18875;SDS011;9570;50.854;13.778;2023-05-15T12:08:34;6.93;;;5.73;;
18875;SDS011;9570;50.854;13.778;2023-05-15T12:11:04;6.53;;;5.70;;
18875;SDS011;9570;50.854;13.778;2023-05-15T12:13:30;6.63;;;5.87;;
18875;SDS011;9570;50.854;13.778;2023-05-15T12:15:56;6.57;;;5.53;;
18875;SDS011;9570;50.854;13.778;2023-05-15T12:18:23;7.07;;;6.27;;
18875;SDS011;9570;50.854;13.778;2023-05-15T12:20:50;7.23;;;6.37;;
18875;SDS011;9570;50.854;13.778;2023-05-15T12:23:16;8.13;;;7.30;;
18875;SDS011;9570;50.854;13.778;2023-05-15T12:25:44;7.90;;;7.10;;
18875;SDS011;9570;50.854;13.778;2023-05-15T12:28:11;8.70;;;6.33;;
18875;SDS011;9570;50.854;13.778;2023-05-15T12:30:37;7.23;;;6.60;;
18875;SDS011;9570;50.854;13.778;2023-05-15T12:33:05;7.87;;;6.03;;
18875;SDS011;9570;50.854;13.778;2023-05-15T12:35:32;9.27;;;6.57;;
18875;SDS011;9570;50.854;13.778;2023-05-15T12:38:01;7.77;;;6.97;;
18875;SDS011;9570;50.854;13.778;2023-05-15T12:40:28;7.77;;;7.03;;
18875;SDS011;9570;50.854;13.778;2023-05-15T12:42:56;8.67;;;7.00;;
18875;SDS011;9570;50.854;13.778;2023-05-15T12:45:22;8.60;;;7.63;;
18875;SDS011;9570;50.854;13.778;2023-05-15T12:47:49;7.63;;;6.73;;
18875;SDS011;9570;50.854;13.778;2023-05-15T12:50:18;8.27;;;6.77;;
18875;SDS011;9570;50.854;13.778;2023-05-15T12:55:14;8.77;;;7.97;;
18875;SDS011;9570;50.854;13.778;2023-05-15T12:57:46;7.53;;;6.83;;
18875;SDS011;9570;50.854;13.778;2023-05-15T13:00:13;8.03;;;7.23;;
18875;SDS011;9570;50.854;13.778;2023-05-15T13:02:41;8.67;;;7.20;;
18875;SDS011;9570;50.854;13.778;2023-05-15T13:05:08;7.50;;;6.43;;
18875;SDS011;9570;50.854;13.778;2023-05-15T13:07:34;7.83;;;6.77;;
18875;SDS011;9570;50.854;13.778;2023-05-15T13:10:06;7.90;;;6.13;;
18875;SDS011;9570;50.854;13.778;2023-05-15T13:12:51;7.40;;;6.53;;
18875;SDS011;9570;50.854;13.778;2023-05-15T13:17:51;7.43;;;6.47;;
18875;SDS011;9570;50.854;13.778;2023-05-15T13:20:20;8.83;;;5.97;;
18875;SDS011;9570;50.854;13.778;2023-05-15T13:22:46;7.83;;;6.40;;
18875;SDS011;9570;50.854;13.778;2023-05-15T13:25:11;7.00;;;5.60;;
18875;SDS011;9570;50.854;13.778;2023-05-15T13:27:41;8.40;;;5.07;;
18875;SDS011;9570;50.854;13.778;2023-05-15T13:30:07;5.07;;;4.60;;
18875;SDS011;9570;50.854;13.778;2023-05-15T13:32:33;6.77;;;4.97;;
18875;SDS011;9570;50.854;13.778;2023-05-15T13:34:58;7.67;;;4.97;;
18875;SDS011;9570;50.854;13.778;2023-05-15T13:37:23;6.43;;;4.50;;
18875;SDS011;9570;50.854;13.778;2023-05-15T13:39:49;5.83;;;4.63;;
18875;SDS011;9570;50.854;13.778;2023-05-15T13:42:14;5.53;;;4.43;;
18875;SDS011;9570;50.854;13.778;2023-05-15T13:44:40;5.47;;;4.33;;
18875;SDS011;9570;50.854;13.778;2023-05-15T13:47:05;8.10;;;4.47;;
18875;SDS011;9570;50.854;13.778;2023-05-15T13:49:31;6.03;;;4.73;;
18875;SDS011;9570;50.854;13.778;2023-05-15T13:51:56;6.33;;;4.77;;
18875;SDS011;9570;50.854;13.778;2023-05-15T13:54:22;5.43;;;4.10;;
18875;SDS011;9570;50.854;13.778;2023-05-15T13:56:47;4.93;;;3.97;;
18875;SDS011;9570;50.854;13.778;2023-05-15T13:59:13;5.23;;;4.47;;
18875;SDS011;9570;50.854;13.778;2023-05-15T14:01:38;6.67;;;4.93;;
18875;SDS011;9570;50.854;13.778;2023-05-15T14:04:03;4.70;;;4.30;;
18875;SDS011;9570;50.854;13.778;2023-05-15T14:06:29;5.60;;;4.40;;
18875;SDS011;9570;50.854;13.778;2023-05-15T14:08:55;4.43;;;4.03;;
18875;SDS011;9570;50.854;13.778;2023-05-15T14:11:20;6.20;;;4.70;;
18875;SDS011;9570;50.854;13.778;2023-05-15T14:13:46;4.87;;;4.30;;
18875;SDS011;9570;50.854;13.778;2023-05-15T14:16:12;4.77;;;3.73;;
18875;SDS011;9570;50.854;13.778;2023-05-15T14:18:37;5.00;;;3.90;;
18875;SDS011;9570;50.854;13.778;2023-05-15T14:21:03;4.87;;;4.37;;
18875;SDS011;9570;50.854;13.778;2023-05-15T14:23:28;5.23;;;3.90;;
18875;SDS011;9570;50.854;13.778;2023-05-15T14:25:54;4.70;;;4.30;;
18875;SDS011;9570;50.854;13.778;2023-05-15T14:28:19;4.63;;;4.20;;
18875;SDS011;9570;50.854;13.778;2023-05-15T14:30:45;7.90;;;4.10;;
18875;SDS011;9570;50.854;13.778;2023-05-15T14:33:10;4.77;;;4.07;;
18875;SDS011;9570;50.854;13.778;2023-05-15T14:35:36;6.50;;;4.30;;
18875;SDS011;9570;50.854;13.778;2023-05-15T14:38:01;5.47;;;4.60;;
18875;SDS011;9570;50.854;13.778;2023-05-15T14:40:27;4.87;;;4.40;;
18875;SDS011;9570;50.854;13.778;2023-05-15T14:42:53;6.63;;;4.17;;
18875;SDS011;9570;50.854;13.778;2023-05-15T14:45:18;5.97;;;4.23;;
18875;SDS011;9570;50.854;13.778;2023-05-15T14:47:44;7.63;;;4.60;;
18875;SDS011;9570;50.854;13.778;2023-05-15T14:50:09;8.73;;;4.30;;
18875;SDS011;9570;50.854;13.778;2023-05-15T14:52:35;4.23;;;3.83;;
18875;SDS011;9570;50.854;13.778;2023-05-15T14:55:00;4.17;;;3.80;;
18875;SDS011;9570;50.854;13.778;2023-05-15T14:57:26;3.80;;;3.50;;
18875;SDS011;9570;50.854;13.778;2023-05-15T14:59:52;7.23;;;3.50;;
18875;SDS011;9570;50.854;13.778;2023-05-15T15:02:17;3.73;;;3.43;;
18875;SDS011;9570;50.854;13.778;2023-05-15T15:04:42;3.67;;;3.37;;
18875;SDS011;9570;50.854;13.778;2023-05-15T15:07:09;7.57;;;3.47;;
18875;SDS011;9570;50.854;13.778;2023-05-15T15:09:35;6.43;;;3.70;;